KCSQ/CSQ METAR and TAF weather

Enter ICAO airport designator
Station Type Date Time Source
KCSQ METAR 2022/01/18 07:55 UTC NOAA

KCSQ 180755Z AUTO 17007KT 10SM CLR M02/M02 A2979 RMK AO2


Station Type Date Time Source
KCSQ Decoded METAR 2022/01/18 07:55 UTC NOAA

Creston, IA, United States (KCSQ) 41-01N 094-22W
Jan 18, 2022 - 02:55 AM EST / 2022.01.18 0755 UTC
Wind: from the S (170 degrees) at 8 MPH (7 KT):0
Visibility: 10 mile(s):0
Sky conditions: clear
Temperature: 28 F (-2 C)
Windchill: 19 F (-7 C):1
Dew Point: 28 F (-2 C)
Relative Humidity: 100%
Pressure (altimeter): 29.79 in. Hg (1008 hPa)
ob: KCSQ 180755Z AUTO 17007KT 10SM CLR M02/M02 A2979 RMK AO2
cycle: 8

Station Type Date Time Source
KCSQ TAF UTC NOAA

Error!

Example: see airport list